Time;durP1;ratioP1;P1;durP2;ratioP2;P2;SDS_P1;SDS_P2;PMS_P1;PMS_P2;Temp;Humidity;BMP_temperature;BMP_pressure;BME280_temperature;BME280_humidity;BME280_pressure;Samples;Min_cycle;Max_cycle;Signal;HPM_P1;HPM_P2
2022/03/19 00:01:45;;;;;;;95.53;48.90;;;5.30;99.90;;;;;;4972625;28;20194;-74
2022/03/19 00:04:11;;;;;;;85.50;47.33;;;5.30;99.90;;;;;;4972130;28;20185;-74
2022/03/19 00:06:39;;;;;;;86.40;47.73;;;5.30;99.90;;;;;;4971922;28;20186;-74
2022/03/19 00:09:06;;;;;;;88.77;46.70;;;5.30;99.90;;;;;;4972422;28;20210;-73
2022/03/19 00:11:32;;;;;;;87.03;47.60;;;5.30;99.90;;;;;;4972530;28;20869;-74
2022/03/19 00:13:58;;;;;;;96.83;49.90;;;5.30;99.90;;;;;;4972159;28;20416;-74
2022/03/19 00:16:24;;;;;;;92.90;47.30;;;5.20;99.90;;;;;;4976617;28;20554;-73
2022/03/19 00:18:50;;;;;;;92.13;48.90;;;5.30;99.90;;;;;;4991818;28;20161;-73
2022/03/19 00:21:16;;;;;;;94.33;47.27;;;5.30;99.90;;;;;;4990263;28;20427;-73
2022/03/19 00:23:42;;;;;;;84.50;47.80;;;5.30;99.90;;;;;;4991762;28;20903;-74
2022/03/19 00:26:09;;;;;;;82.60;45.80;;;5.40;99.90;;;;;;4992192;28;20413;-74
2022/03/19 00:28:36;;;;;;;84.23;44.20;;;5.30;99.90;;;;;;4992974;28;20175;-74
2022/03/19 00:31:02;;;;;;;85.53;45.43;;;5.40;99.90;;;;;;4991620;28;20498;-74
2022/03/19 00:33:28;;;;;;;89.43;47.33;;;5.40;99.90;;;;;;4991462;28;20467;-75
2022/03/19 00:35:54;;;;;;;83.47;46.63;;;5.40;99.90;;;;;;4990769;28;20412;-74
2022/03/19 00:38:20;;;;;;;93.63;47.43;;;5.40;99.90;;;;;;4991245;28;20180;-74
2022/03/19 00:40:46;;;;;;;82.30;46.30;;;5.40;99.90;;;;;;4991336;28;20559;-73
2022/03/19 00:43:11;;;;;;;85.37;44.67;;;5.40;99.90;;;;;;4991193;28;20176;-74
2022/03/19 00:45:37;;;;;;;83.53;48.00;;;5.50;99.90;;;;;;4991657;28;20486;-74
2022/03/19 00:48:03;;;;;;;85.63;43.73;;;5.40;99.90;;;;;;4990834;28;20519;-74
2022/03/19 00:50:29;;;;;;;81.63;45.37;;;5.40;99.90;;;;;;4991601;28;20803;-74
2022/03/19 00:52:54;;;;;;;93.13;44.57;;;5.50;99.90;;;;;;4990976;28;20434;-74
2022/03/19 00:55:20;;;;;;;82.83;43.93;;;5.40;99.90;;;;;;4991320;28;20173;-73
2022/03/19 00:57:46;;;;;;;86.90;43.63;;;5.40;99.90;;;;;;4990635;28;20186;-74
2022/03/19 01:00:15;;;;;;;90.00;47.93;;;5.50;99.90;;;;;;4991161;28;20657;-73
2022/03/19 01:02:42;;;;;;;75.50;45.43;;;5.40;99.90;;;;;;4991432;28;20447;-74
2022/03/19 01:05:08;;;;;;;73.43;43.47;;;5.40;99.90;;;;;;4990836;28;20426;-74
2022/03/19 01:07:43;;;;;;;89.77;47.20;;;5.40;99.90;;;;;;4990787;28;20390;-73
2022/03/19 01:10:11;;;;;;;80.57;44.73;;;5.40;99.90;;;;;;4990890;28;20530;-74
2022/03/19 01:12:36;;;;;;;78.53;45.10;;;5.40;99.90;;;;;;4991203;28;20439;-73
2022/03/19 01:15:02;;;;;;;83.60;45.73;;;5.40;99.90;;;;;;4990133;28;20412;-74
2022/03/19 01:17:28;;;;;;;82.73;47.50;;;5.30;99.90;;;;;;4990392;28;20172;-74
2022/03/19 01:19:54;;;;;;;81.23;45.60;;;5.40;99.90;;;;;;4990704;28;20420;-73
2022/03/19 01:22:24;;;;;;;87.43;44.80;;;5.40;99.90;;;;;;4990904;28;20197;-73
2022/03/19 01:24:50;;;;;;;77.27;43.23;;;5.30;99.90;;;;;;4990528;28;20190;-74
2022/03/19 01:27:16;;;;;;;81.60;45.60;;;5.30;99.90;;;;;;4990268;28;20410;-73
2022/03/19 01:29:42;;;;;;;83.03;45.47;;;5.30;99.90;;;;;;4990858;28;20417;-73
2022/03/19 01:32:08;;;;;;;87.60;44.73;;;5.30;99.90;;;;;;4990436;28;20454;-74
2022/03/19 01:34:34;;;;;;;72.40;44.07;;;5.30;99.90;;;;;;4990396;28;20706;-73
2022/03/19 01:36:59;;;;;;;82.10;45.03;;;5.30;99.90;;;;;;4990606;28;20405;-74
2022/03/19 01:39:25;;;;;;;73.30;42.13;;;5.20;99.90;;;;;;4990493;28;20179;-74
2022/03/19 01:41:50;;;;;;;88.53;44.80;;;5.20;99.90;;;;;;4990858;28;20574;-75
2022/03/19 01:44:20;;;;;;;87.83;43.93;;;5.20;99.90;;;;;;4990253;28;20216;-74
2022/03/19 01:47:02;;;;;;;77.03;44.50;;;5.10;99.90;;;;;;4990813;28;20169;-74
2022/03/19 01:49:29;;;;;;;85.00;45.17;;;5.00;99.90;;;;;;4990143;28;20532;-74
2022/03/19 01:51:55;;;;;;;78.40;43.23;;;5.00;99.90;;;;;;4990869;28;20435;-74
2022/03/19 01:54:26;;;;;;;76.57;44.43;;;5.00;99.90;;;;;;4990108;28;20415;-74
2022/03/19 01:56:52;;;;;;;77.50;43.97;;;5.00;99.90;;;;;;4990718;28;20247;-74
2022/03/19 01:59:21;;;;;;;84.43;43.27;;;4.90;99.90;;;;;;4990335;28;20895;-73
2022/03/19 03:32:24;;;;;;;68.07;36.97;;;4.20;99.90;;;;;;5338749;23;20530;-76
2022/03/19 03:34:49;;;;;;;72.90;41.63;;;4.10;99.90;;;;;;4970687;28;20429;-75
2022/03/19 03:37:18;;;;;;;67.77;38.00;;;4.10;99.90;;;;;;4972563;28;20650;-77
2022/03/19 03:39:43;;;;;;;82.80;42.10;;;4.10;99.90;;;;;;4971045;28;20180;-76
2022/03/19 03:42:08;;;;;;;70.63;40.20;;;4.10;99.90;;;;;;4977153;28;20410;-76
2022/03/19 03:44:34;;;;;;;69.97;40.40;;;4.00;99.90;;;;;;4992407;28;20648;-76
2022/03/19 03:46:59;;;;;;;71.40;39.87;;;4.00;99.90;;;;;;4992945;28;20297;-76
2022/03/19 03:49:26;;;;;;;69.10;38.07;;;4.00;99.90;;;;;;4989459;28;20174;-76
2022/03/19 03:51:52;;;;;;;76.50;40.33;;;4.00;99.90;;;;;;4992189;28;20235;-76
2022/03/19 03:54:17;;;;;;;61.93;37.23;;;4.00;99.90;;;;;;4992033;28;20933;-76
2022/03/19 03:56:43;;;;;;;63.80;38.20;;;4.00;99.90;;;;;;4993232;28;20211;-77
2022/03/19 03:59:09;;;;;;;67.20;37.83;;;4.00;99.90;;;;;;4992624;28;20260;-74
2022/03/19 04:01:34;;;;;;;68.87;39.17;;;4.00;99.90;;;;;;4994451;28;20211;-75
2022/03/19 04:04:00;;;;;;;74.57;40.53;;;4.00;99.90;;;;;;4993217;28;20775;-75
2022/03/19 04:06:25;;;;;;;66.53;39.47;;;4.00;99.90;;;;;;4993070;28;20655;-76
2022/03/19 04:08:51;;;;;;;67.97;40.10;;;4.10;99.90;;;;;;4992661;28;20179;-75
2022/03/19 04:11:16;;;;;;;71.37;39.30;;;4.10;99.90;;;;;;4992602;28;20216;-76
2022/03/19 04:13:41;;;;;;;60.13;36.37;;;4.10;99.90;;;;;;4991677;28;20260;-76
2022/03/19 04:16:07;;;;;;;79.73;39.63;;;4.10;99.90;;;;;;4992338;28;20208;-75
2022/03/19 04:18:32;;;;;;;71.40;37.70;;;4.10;99.90;;;;;;4992690;28;20180;-76
2022/03/19 04:20:58;;;;;;;77.17;40.70;;;4.10;99.90;;;;;;4992713;28;20231;-76
2022/03/19 04:23:23;;;;;;;71.03;37.83;;;4.10;99.90;;;;;;4991767;28;20732;-75
2022/03/19 04:25:49;;;;;;;76.17;38.30;;;4.20;99.90;;;;;;4991731;28;20180;-74
2022/03/19 04:28:15;;;;;;;68.27;38.70;;;4.20;99.90;;;;;;4992121;28;20185;-75
2022/03/19 04:30:41;;;;;;;65.70;36.50;;;4.20;99.90;;;;;;4992647;28;20236;-76
2022/03/19 04:33:07;;;;;;;68.03;38.70;;;4.20;99.90;;;;;;4990293;28;20753;-76
2022/03/19 04:38:19;;;;;;;70.63;40.03;;;4.20;99.90;;;;;;4991698;28;20465;-75
2022/03/19 04:40:47;;;;;;;67.77;37.53;;;4.10;99.90;;;;;;4991754;28;20494;-74
2022/03/19 04:43:12;;;;;;;70.23;38.87;;;4.10;99.90;;;;;;4991228;28;20419;-75
2022/03/19 04:45:40;;;;;;;73.57;38.40;;;4.10;99.90;;;;;;4992055;28;20779;-76
2022/03/19 04:48:06;;;;;;;69.13;37.23;;;4.00;99.90;;;;;;4991323;28;20172;-75
2022/03/19 04:50:36;;;;;;;66.13;37.53;;;4.00;99.90;;;;;;4991176;28;20474;-75
2022/03/19 04:53:01;;;;;;;58.87;36.30;;;4.00;99.90;;;;;;4990977;28;20442;-76
2022/03/19 04:55:27;;;;;;;72.03;38.37;;;4.00;99.90;;;;;;4992027;28;20520;-75
2022/03/19 04:57:52;;;;;;;67.70;38.50;;;4.00;99.90;;;;;;4991251;28;20170;-76
2022/03/19 05:00:20;;;;;;;68.63;39.97;;;3.90;99.90;;;;;;4991612;28;20331;-76
2022/03/19 05:02:45;;;;;;;68.77;37.53;;;3.90;99.90;;;;;;4991142;28;20253;-74
2022/03/19 05:05:11;;;;;;;68.10;37.90;;;3.90;99.90;;;;;;4991579;28;20456;-76
2022/03/19 05:07:37;;;;;;;77.80;39.47;;;3.90;99.90;;;;;;4991044;28;20242;-75
2022/03/19 05:12:52;;;;;;;84.23;38.53;;;3.90;99.90;;;;;;4991001;28;20466;-75
2022/03/19 05:15:18;;;;;;;64.50;37.10;;;3.90;99.90;;;;;;4991366;28;20809;-77
2022/03/19 05:17:44;;;;;;;67.43;35.90;;;3.90;99.90;;;;;;4991404;28;20737;-76
2022/03/19 05:20:11;;;;;;;61.23;35.67;;;3.90;99.90;;;;;;4990758;28;20192;-76
2022/03/19 05:22:37;;;;;;;64.67;33.90;;;3.80;99.90;;;;;;4991392;28;20435;-76
2022/03/19 05:25:04;;;;;;;67.20;37.10;;;3.60;99.90;;;;;;4991046;28;20415;-76
2022/03/19 05:27:30;;;;;;;70.40;36.83;;;3.50;99.90;;;;;;4991354;28;20385;-74
2022/03/19 05:29:56;;;;;;;62.50;35.67;;;3.40;99.90;;;;;;4990807;28;20788;-75
2022/03/19 05:32:22;;;;;;;69.57;38.20;;;3.20;99.90;;;;;;4991168;28;20207;-76
2022/03/19 05:34:48;;;;;;;62.00;36.50;;;3.10;99.90;;;;;;4991071;28;20675;-75
2022/03/19 05:37:15;;;;;;;69.30;38.10;;;3.00;99.90;;;;;;4991644;28;20473;-76
2022/03/19 05:39:41;;;;;;;65.67;36.10;;;2.90;99.90;;;;;;4991260;28;20396;-76
2022/03/19 05:42:06;;;;;;;62.10;35.27;;;2.80;99.90;;;;;;4991141;28;20412;-76
2022/03/19 05:44:32;;;;;;;67.50;38.77;;;2.70;99.90;;;;;;4990315;28;20428;-76
2022/03/19 05:46:58;;;;;;;77.33;38.57;;;2.60;99.90;;;;;;4991004;28;20173;-75
2022/03/19 05:49:25;;;;;;;68.90;37.03;;;2.60;99.90;;;;;;4991059;28;20182;-76
2022/03/19 05:51:51;;;;;;;82.77;39.70;;;2.50;99.90;;;;;;4991539;28;20472;-75
2022/03/19 05:54:17;;;;;;;72.03;36.90;;;2.50;99.90;;;;;;4990418;28;20828;-76
2022/03/19 05:56:42;;;;;;;70.37;38.57;;;2.40;99.90;;;;;;4990544;28;20505;-75
2022/03/19 05:59:08;;;;;;;67.10;36.90;;;2.50;99.90;;;;;;4990398;28;20276;-77
2022/03/19 06:01:35;;;;;;;72.20;36.43;;;2.50;99.90;;;;;;4990531;28;20281;-77
2022/03/19 06:04:00;;;;;;;67.63;36.73;;;2.60;99.90;;;;;;4989969;28;20247;-76
2022/03/19 06:06:27;;;;;;;64.90;38.00;;;2.70;99.90;;;;;;4994392;28;20484;-76
2022/03/19 06:08:53;;;;;;;58.23;35.73;;;3.10;99.90;;;;;;4994204;28;20215;-77
2022/03/19 06:11:19;;;;;;;59.23;33.90;;;3.70;99.90;;;;;;4993623;28;21127;-75
2022/03/19 06:13:44;;;;;;;57.17;32.60;;;4.30;99.90;;;;;;4993866;28;20418;-77
2022/03/19 06:16:10;;;;;;;55.57;33.03;;;4.90;99.90;;;;;;4993623;28;20544;-76
2022/03/19 06:18:36;;;;;;;58.37;34.80;;;5.40;99.90;;;;;;4994370;28;20176;-77
2022/03/19 06:21:02;;;;;;;52.17;33.73;;;5.90;99.90;;;;;;4993852;28;20196;-78
2022/03/19 06:23:28;;;;;;;52.50;32.57;;;6.40;99.90;;;;;;4993714;28;20178;-76
2022/03/19 06:25:54;;;;;;;50.10;32.70;;;7.00;99.90;;;;;;4993501;28;20420;-76
2022/03/19 06:28:19;;;;;;;49.23;31.13;;;7.30;99.90;;;;;;4993792;28;20190;-75
2022/03/19 06:30:45;;;;;;;51.30;31.23;;;7.80;99.90;;;;;;4993543;28;20469;-75
2022/03/19 06:33:12;;;;;;;50.73;32.27;;;8.30;99.90;;;;;;4992417;28;20818;-75
2022/03/19 06:38:25;;;;;;;51.30;33.43;;;8.90;99.90;;;;;;4993850;28;20446;-75
2022/03/19 06:40:50;;;;;;;52.70;33.73;;;9.10;99.90;;;;;;4993397;28;20472;-75
2022/03/19 06:43:16;;;;;;;51.80;32.70;;;9.50;99.90;;;;;;4992693;28;20477;-75
2022/03/19 06:45:42;;;;;;;51.10;33.73;;;9.90;99.90;;;;;;4993392;28;20590;-75
2022/03/19 06:48:07;;;;;;;46.73;31.90;;;10.10;99.90;;;;;;4993437;28;20186;-76
2022/03/19 06:50:33;;;;;;;47.57;31.97;;;10.70;99.90;;;;;;4993727;28;20462;-74
2022/03/19 06:52:58;;;;;;;43.90;31.17;;;10.90;99.90;;;;;;4992941;28;20178;-74
2022/03/19 06:55:24;;;;;;;44.37;32.53;;;11.10;99.90;;;;;;4993731;28;20172;-75
2022/03/19 06:57:49;;;;;;;49.87;33.07;;;11.40;99.90;;;;;;4992599;28;20265;-75
2022/03/19 07:00:15;;;;;;;48.83;33.10;;;11.90;99.90;;;;;;4993295;28;20179;-75
2022/03/19 07:02:51;;;;;;;61.57;35.30;;;12.40;99.90;;;;;;4993380;28;20298;-75
2022/03/19 07:05:23;;;;;;;52.13;35.97;;;12.90;99.90;;;;;;4993490;28;20742;-76
2022/03/19 07:07:49;;;;;;;54.63;35.93;;;13.10;99.90;;;;;;4992793;28;20824;-74
2022/03/19 07:10:15;;;;;;;51.53;35.03;;;13.30;99.90;;;;;;4992379;28;20528;-74
2022/03/19 07:12:43;;;;;;;51.90;33.77;;;13.40;99.90;;;;;;4993089;28;20681;-75
2022/03/19 07:15:12;;;;;;;48.70;34.57;;;13.70;99.90;;;;;;4992460;28;20410;-74
2022/03/19 07:17:38;;;;;;;53.10;35.40;;;13.70;99.90;;;;;;4992979;28;20418;-74
2022/03/19 07:20:04;;;;;;;47.03;33.37;;;14.00;99.90;;;;;;4993167;28;20485;-76
2022/03/19 07:22:49;;;;;;;47.50;32.20;;;14.10;99.90;;;;;;4993043;28;20278;-75
2022/03/19 07:25:15;;;;;;;55.40;34.90;;;13.60;99.90;;;;;;4992805;28;20418;-75
2022/03/19 07:27:41;;;;;;;56.53;36.10;;;12.90;99.90;;;;;;4992631;28;20438;-76
2022/03/19 07:30:07;;;;;;;55.80;34.87;;;12.40;99.90;;;;;;4992502;28;20546;-76
2022/03/19 07:32:32;;;;;;;54.47;34.03;;;12.00;99.90;;;;;;4992127;28;20842;-76
2022/03/19 07:34:59;;;;;;;54.83;33.67;;;11.90;99.90;;;;;;4992175;28;20418;-75
2022/03/19 07:37:26;;;;;;;52.53;33.00;;;11.70;99.90;;;;;;4992628;28;20178;-75
2022/03/19 07:39:51;;;;;;;52.17;33.00;;;11.70;99.90;;;;;;4992402;28;20475;-75
2022/03/19 07:42:17;;;;;;;49.70;32.70;;;11.70;99.90;;;;;;4991810;28;20442;-75
2022/03/19 07:44:42;;;;;;;48.20;33.67;;;11.70;99.90;;;;;;4992480;28;20225;-75
2022/03/19 07:47:07;;;;;;;52.87;33.10;;;11.80;99.90;;;;;;4992312;28;20600;-75
2022/03/19 07:49:33;;;;;;;52.63;32.20;;;11.60;99.90;;;;;;4992442;28;20447;-75
2022/03/19 07:52:05;;;;;;;50.17;30.57;;;11.90;99.90;;;;;;4990907;28;20213;-76
2022/03/19 07:54:30;;;;;;;54.40;33.30;;;12.00;99.90;;;;;;4991193;28;20171;-76
2022/03/19 07:56:56;;;;;;;52.13;32.27;;;12.30;99.90;;;;;;4991973;28;20429;-75
2022/03/19 07:59:21;;;;;;;50.97;31.00;;;12.20;99.90;;;;;;4992115;28;20187;-75
2022/03/19 08:01:50;;;;;;;47.30;32.10;;;12.10;99.90;;;;;;4992385;28;20561;-75
2022/03/19 08:04:16;;;;;;;51.00;31.83;;;12.10;99.90;;;;;;4990840;28;20187;-75
2022/03/19 08:06:42;;;;;;;51.33;31.93;;;12.10;99.90;;;;;;4992276;28;20915;-75
2022/03/19 08:09:09;;;;;;;45.07;28.53;;;12.00;99.90;;;;;;4991822;28;20425;-75
2022/03/19 08:11:35;;;;;;;43.50;29.83;;;12.20;99.90;;;;;;4992171;28;20221;-75
2022/03/19 08:14:02;;;;;;;41.83;28.70;;;12.20;99.90;;;;;;4990778;28;20534;-75
2022/03/19 08:16:27;;;;;;;40.47;27.40;;;12.20;99.90;;;;;;4992196;28;20766;-75
2022/03/19 08:18:54;;;;;;;45.60;29.13;;;12.20;99.90;;;;;;4991768;28;20417;-76
2022/03/19 08:21:20;;;;;;;45.37;27.57;;;12.20;99.90;;;;;;4991634;28;20330;-75
2022/03/19 08:23:47;;;;;;;40.90;26.20;;;12.00;99.90;;;;;;4991272;28;20414;-75
2022/03/19 08:26:12;;;;;;;43.57;27.70;;;12.30;99.90;;;;;;4990938;28;20667;-75
2022/03/19 08:28:38;;;;;;;38.40;26.70;;;12.40;99.90;;;;;;4991179;28;20684;-75
2022/03/19 08:31:03;;;;;;;47.50;28.23;;;12.60;99.90;;;;;;4991110;28;20207;-75
2022/03/19 08:33:29;;;;;;;45.13;25.90;;;12.80;99.90;;;;;;4991248;28;20523;-75
2022/03/19 08:35:55;;;;;;;38.37;26.73;;;12.90;99.90;;;;;;4991508;28;20198;-75
2022/03/19 08:41:04;;;;;;;42.20;27.90;;;13.40;99.90;;;;;;4990547;28;20210;-75
2022/03/19 08:43:30;;;;;;;44.20;25.97;;;13.60;99.90;;;;;;4991003;28;20418;-75
2022/03/19 08:45:56;;;;;;;36.33;23.70;;;13.60;99.90;;;;;;4991479;28;20175;-75
2022/03/19 08:48:21;;;;;;;37.00;25.97;;;13.60;99.90;;;;;;4991290;28;20190;-75
2022/03/19 08:50:47;;;;;;;42.10;26.47;;;13.20;99.90;;;;;;4991177;28;20203;-75
2022/03/19 08:53:16;;;;;;;40.57;25.13;;;13.30;99.90;;;;;;4990500;28;20183;-75
2022/03/19 08:55:41;;;;;;;36.83;23.47;;;13.00;99.90;;;;;;4991032;28;20179;-75
2022/03/19 08:58:07;;;;;;;33.77;24.37;;;13.20;99.90;;;;;;4990913;28;20410;-75
2022/03/19 09:00:34;;;;;;;39.83;24.40;;;13.30;99.90;;;;;;4991132;28;20270;-75
2022/03/19 09:02:59;;;;;;;36.70;24.20;;;13.30;99.90;;;;;;4990550;28;20199;-77
2022/03/19 09:05:27;;;;;;;37.33;24.63;;;13.10;99.90;;;;;;4990991;28;20923;-75
2022/03/19 09:07:52;;;;;;;33.33;23.20;;;13.20;99.90;;;;;;4991082;28;20649;-75
2022/03/19 09:10:18;;;;;;;42.30;24.43;;;13.30;99.90;;;;;;4990934;28;20512;-75
2022/03/19 09:12:44;;;;;;;40.10;26.20;;;13.30;99.90;;;;;;4990401;28;20191;-74
2022/03/19 09:15:11;;;;;;;34.13;23.83;;;13.20;99.90;;;;;;4990700;28;20229;-75
2022/03/19 09:17:36;;;;;;;34.53;24.37;;;13.50;99.90;;;;;;4991200;28;20586;-75
2022/03/19 09:20:03;;;;;;;37.10;23.37;;;13.60;99.90;;;;;;4990863;28;20414;-75
2022/03/19 09:22:30;;;;;;;35.23;24.10;;;13.20;99.90;;;;;;4990616;28;20608;-74
2022/03/19 09:24:56;;;;;;;35.57;24.97;;;13.60;99.90;;;;;;4989868;28;20521;-75
2022/03/19 09:27:22;;;;;;;37.67;26.00;;;14.00;99.90;;;;;;4991204;28;20988;-75
2022/03/19 09:29:48;;;;;;;38.07;27.13;;;13.70;99.90;;;;;;4990783;28;20555;-75
2022/03/19 09:32:16;;;;;;;39.17;26.30;;;13.90;99.90;;;;;;4990784;28;20211;-75
2022/03/19 09:34:43;;;;;;;39.57;27.63;;;13.90;99.90;;;;;;4990276;28;20502;-74
2022/03/19 09:37:09;;;;;;;35.23;25.03;;;13.70;99.90;;;;;;4990027;28;20410;-75
2022/03/19 09:39:34;;;;;;;42.03;25.97;;;13.50;99.90;;;;;;4992033;28;20501;-74
2022/03/19 09:42:01;;;;;;;40.17;25.53;;;13.50;99.90;;;;;;4994819;28;20260;-75
2022/03/19 09:44:26;;;;;;;43.10;26.10;;;14.00;99.90;;;;;;4994499;28;20179;-75
2022/03/19 09:46:53;;;;;;;35.57;24.60;;;14.10;99.90;;;;;;4994573;28;20464;-74
2022/03/19 09:49:19;;;;;;;42.70;25.73;;;14.70;99.90;;;;;;4994511;28;20238;-75
2022/03/19 09:51:53;;;;;;;36.03;25.77;;;15.00;99.90;;;;;;4994255;28;21022;-75
2022/03/19 09:54:19;;;;;;;42.30;25.57;;;14.60;99.90;;;;;;4993889;28;20180;-75
2022/03/19 09:56:45;;;;;;;46.33;25.97;;;14.60;99.90;;;;;;4995108;28;20414;-75
2022/03/19 09:59:11;;;;;;;37.47;26.60;;;14.30;99.90;;;;;;4994074;28;20414;-74
2022/03/19 10:01:38;;;;;;;49.20;29.20;;;14.30;99.90;;;;;;4994111;28;20570;-74
2022/03/19 10:04:08;;;;;;;41.70;27.23;;;14.10;99.90;;;;;;4993503;28;20258;-75
2022/03/19 10:09:30;;;;;;;38.00;25.53;;;15.00;99.90;;;;;;4994289;28;20773;-75
2022/03/19 10:11:56;;;;;;;38.87;27.53;;;15.20;99.90;;;;;;4993405;28;20462;-74
2022/03/19 10:14:24;;;;;;;40.03;27.00;;;15.10;99.90;;;;;;4993352;28;20228;-74
2022/03/19 10:16:51;;;;;;;38.17;26.03;;;15.30;99.90;;;;;;4994039;28;20178;-74
2022/03/19 10:19:17;;;;;;;38.73;28.40;;;15.20;99.90;;;;;;4993750;28;20414;-75
2022/03/19 10:21:42;;;;;;;37.90;27.30;;;15.60;99.90;;;;;;4993698;28;20450;-75
2022/03/19 10:24:19;;;;;;;38.77;27.43;;;15.50;99.90;;;;;;4992527;28;20183;-74
2022/03/19 10:26:48;;;;;;;49.50;27.60;;;15.30;99.90;;;;;;4994046;28;20694;-74
2022/03/19 10:29:14;;;;;;;41.07;25.70;;;15.30;99.90;;;;;;4993415;28;20433;-75
2022/03/19 10:31:50;;;;;;;43.53;28.20;;;15.00;99.90;;;;;;4993484;28;20532;-74
2022/03/19 10:34:15;;;;;;;38.20;27.27;;;15.40;99.90;;;;;;4993142;28;20414;-75
2022/03/19 10:36:45;;;;;;;40.20;29.60;;;15.40;99.90;;;;;;4992957;28;20468;-75
2022/03/19 10:39:30;;;;;;;40.90;28.33;;;15.20;99.90;;;;;;4993327;28;20528;-75
2022/03/19 10:41:57;;;;;;;42.60;30.90;;;15.20;99.90;;;;;;4993365;28;20439;-74
2022/03/19 10:44:25;;;;;;;41.00;28.27;;;15.20;99.90;;;;;;4993142;28;20793;-75
2022/03/19 10:46:59;;;;;;;41.50;27.63;;;15.20;99.90;;;;;;4991997;28;20874;-75
2022/03/19 10:49:27;;;;;;;47.20;31.50;;;15.30;99.90;;;;;;4993457;28;20963;-77
2022/03/19 10:51:57;;;;;;;46.60;31.80;;;15.60;99.90;;;;;;4992930;28;20524;-75
2022/03/19 10:54:23;;;;;;;48.43;29.90;;;15.30;99.90;;;;;;4992710;28;20820;-75
2022/03/19 10:56:52;;;;;;;42.07;29.43;;;15.30;99.90;;;;;;4992601;28;20402;-74
2022/03/19 10:59:18;;;;;;;44.70;29.50;;;15.50;99.90;;;;;;4992758;28;20494;-74
2022/03/19 11:01:47;;;;;;;41.20;29.27;;;15.30;99.90;;;;;;4992901;28;20442;-74
2022/03/19 11:04:14;;;;;;;50.13;29.00;;;15.00;99.90;;;;;;4990631;28;20989;-74
2022/03/19 11:06:41;;;;;;;36.30;26.87;;;14.90;99.90;;;;;;4992514;28;20415;-75
2022/03/19 11:09:10;;;;;;;39.43;28.13;;;15.30;99.90;;;;;;4992519;28;20418;-74
2022/03/19 11:11:57;;;;;;;39.80;24.17;;;15.30;99.90;;;;;;4992736;28;20469;-75
2022/03/19 11:14:24;;;;;;;45.27;25.60;;;15.10;99.90;;;;;;4992462;28;20421;-75
2022/03/19 11:17:24;;;;;;;29.07;19.67;;;15.20;99.90;;;;;;4992055;28;20931;-74
2022/03/19 11:20:04;;;;;;;27.20;17.77;;;14.90;98.10;;;;;;4992915;28;20410;-74
2022/03/19 11:22:39;;;;;;;33.03;20.60;;;14.50;98.20;;;;;;4993417;28;20793;-74
2022/03/19 11:25:20;;;;;;;29.40;18.67;;;14.20;99.20;;;;;;4992087;28;20412;-75
2022/03/19 11:27:48;;;;;;;27.80;18.57;;;14.20;99.40;;;;;;4992817;28;20406;-74
2022/03/19 11:30:20;;;;;;;23.17;16.00;;;13.90;99.80;;;;;;4991793;28;20454;-74
2022/03/19 11:33:05;;;;;;;21.43;14.53;;;13.80;98.20;;;;;;4991596;28;20455;-73
2022/03/19 11:35:34;;;;;;;21.07;14.27;;;13.90;97.50;;;;;;4992939;28;20510;-74
2022/03/19 11:38:01;;;;;;;21.20;13.30;;;14.20;99.60;;;;;;4992027;28;20462;-75
2022/03/19 11:40:29;;;;;;;19.57;12.80;;;14.30;97.20;;;;;;4992201;28;20446;-74
2022/03/19 11:42:56;;;;;;;22.70;13.70;;;14.30;97.20;;;;;;4991309;28;20520;-74
2022/03/19 11:45:22;;;;;;;18.17;13.00;;;14.30;96.50;;;;;;4992238;28;20497;-75
2022/03/19 11:47:47;;;;;;;20.73;13.47;;;14.20;98.10;;;;;;4991815;28;20440;-74
2022/03/19 11:50:23;;;;;;;23.43;13.60;;;14.20;98.30;;;;;;4990916;28;20470;-75
2022/03/19 11:52:49;;;;;;;22.30;12.50;;;14.00;98.70;;;;;;4991246;28;20199;-73
2022/03/19 11:55:18;;;;;;;23.10;14.33;;;14.00;99.90;;;;;;4991690;28;20437;-75
2022/03/19 11:57:49;;;;;;;23.60;14.40;;;13.90;98.60;;;;;;4992040;28;20176;-75
2022/03/19 12:00:16;;;;;;;24.07;13.90;;;13.80;99.60;;;;;;4991984;28;20422;-75
2022/03/19 12:03:05;;;;;;;21.63;12.53;;;14.00;99.10;;;;;;4990547;28;20494;-75
2022/03/19 12:05:33;;;;;;;16.63;10.87;;;13.90;99.90;;;;;;4992299;28;20407;-75
2022/03/19 12:08:27;;;;;;;18.97;11.70;;;13.70;98.10;;;;;;4991853;28;20422;-75
2022/03/19 12:11:00;;;;;;;21.70;11.90;;;13.50;98.80;;;;;;4991041;28;20964;-74
2022/03/19 12:13:26;;;;;;;25.57;14.27;;;13.40;98.70;;;;;;4990461;28;20438;-75
2022/03/19 12:15:55;;;;;;;16.53;11.77;;;13.50;99.60;;;;;;4991638;28;20519;-75
2022/03/19 12:18:29;;;;;;;16.80;10.80;;;13.40;95.80;;;;;;4991703;28;20557;-75
2022/03/19 12:21:00;;;;;;;14.00;9.87;;;13.50;97.80;;;;;;4991720;28;20525;-75
2022/03/19 12:23:27;;;;;;;17.70;10.77;;;13.40;97.90;;;;;;4990638;28;20430;-75
2022/03/19 12:26:01;;;;;;;18.60;11.50;;;13.30;97.00;;;;;;4991685;28;20974;-74
2022/03/19 12:28:27;;;;;;;21.90;11.10;;;13.30;98.40;;;;;;4991626;28;20422;-75
2022/03/19 12:30:53;;;;;;;20.97;11.63;;;13.30;98.50;;;;;;4991235;28;20466;-75
2022/03/19 12:33:28;;;;;;;20.07;13.00;;;13.10;98.00;;;;;;4991160;28;20434;-75
2022/03/19 12:35:58;;;;;;;14.77;10.27;;;12.90;99.40;;;;;;4991892;28;20261;-74
2022/03/19 12:38:25;;;;;;;16.83;11.47;;;12.60;95.90;;;;;;4991919;28;20421;-77
2022/03/19 12:43:38;;;;;;;16.80;11.33;;;12.20;97.70;;;;;;4991308;28;20433;-75
2022/03/19 12:46:05;;;;;;;16.83;9.90;;;12.00;97.70;;;;;;4991461;28;20944;-77
2022/03/19 12:48:32;;;;;;;17.33;10.53;;;12.00;97.80;;;;;;4991211;28;20427;-75
2022/03/19 12:50:58;;;;;;;15.70;9.30;;;12.20;97.60;;;;;;4992134;28;20476;-76
2022/03/19 12:53:32;;;;;;;17.93;10.60;;;12.20;96.70;;;;;;4992323;28;20875;-77
2022/03/19 12:56:21;;;;;;;14.10;8.40;;;12.30;96.00;;;;;;4991562;28;20414;-75
2022/03/19 12:58:49;;;;;;;12.53;8.20;;;12.40;94.80;;;;;;4992047;28;20923;-77
2022/03/19 13:01:16;;;;;;;17.67;8.80;;;12.50;95.90;;;;;;4993766;28;20445;-78
2022/03/19 13:03:42;;;;;;;14.30;7.90;;;12.70;95.20;;;;;;4994707;28;20406;-77
2022/03/19 13:06:08;;;;;;;11.47;7.73;;;12.70;96.00;;;;;;4994981;28;20561;-77
2022/03/19 13:08:47;;;;;;;13.30;7.80;;;12.70;94.70;;;;;;4995452;28;20183;-74
2022/03/19 13:11:13;;;;;;;14.40;8.60;;;12.70;94.60;;;;;;4995348;28;20461;-74
2022/03/19 13:13:43;;;;;;;14.57;7.30;;;12.70;94.00;;;;;;4993245;28;20845;-75
2022/03/19 13:16:09;;;;;;;13.10;8.70;;;12.80;94.90;;;;;;4992528;28;20426;-73
2022/03/19 13:18:36;;;;;;;11.53;7.80;;;12.60;93.10;;;;;;4995618;28;20419;-74
2022/03/19 13:21:07;;;;;;;10.80;7.10;;;12.50;93.30;;;;;;4994571;28;20810;-74
2022/03/19 13:23:34;;;;;;;12.43;8.83;;;12.50;93.10;;;;;;4994374;28;20522;-74
2022/03/19 13:26:00;;;;;;;14.17;6.90;;;12.50;93.70;;;;;;4994214;28;20421;-75
2022/03/19 13:28:26;;;;;;;14.93;7.40;;;12.40;92.90;;;;;;4993567;28;20928;-75
2022/03/19 13:30:56;;;;;;;10.83;6.90;;;12.40;92.60;;;;;;4992201;28;20828;-74
2022/03/19 13:33:23;;;;;;;11.33;6.87;;;12.30;92.20;;;;;;4994205;28;20484;-75
2022/03/19 13:35:50;;;;;;;9.37;6.63;;;12.30;92.90;;;;;;4995533;28;20469;-75
2022/03/19 13:38:17;;;;;;;11.83;7.47;;;12.40;92.10;;;;;;4996075;28;20477;-75
2022/03/19 13:40:45;;;;;;;9.90;6.60;;;12.50;92.80;;;;;;4994654;28;20827;-76
2022/03/19 13:43:11;;;;;;;8.23;5.47;;;12.50;92.80;;;;;;4993064;28;20489;-81
2022/03/19 13:45:37;;;;;;;13.00;5.23;;;12.40;94.70;;;;;;4995714;28;20414;-83
2022/03/19 13:48:05;;;;;;;11.40;5.73;;;12.10;95.20;;;;;;4995397;28;20172;-75
2022/03/19 13:50:31;;;;;;;13.50;9.20;;;11.80;95.00;;;;;;4994170;28;20619;-75
2022/03/19 13:52:59;;;;;;;12.53;6.20;;;11.70;94.90;;;;;;4995349;28;20459;-76
2022/03/19 13:55:27;;;;;;;7.63;5.47;;;11.60;95.50;;;;;;4994618;28;20398;-75
2022/03/19 13:58:05;;;;;;;7.07;5.73;;;11.70;95.70;;;;;;4993502;28;20417;-75
2022/03/19 14:00:37;;;;;;;10.50;6.13;;;11.90;95.60;;;;;;4994548;28;20565;-75
2022/03/19 14:03:13;;;;;;;7.30;5.30;;;12.00;94.00;;;;;;4991292;28;20434;-75
2022/03/19 14:05:40;;;;;;;6.57;4.27;;;12.00;93.20;;;;;;4992275;28;20422;-75
2022/03/19 14:08:12;;;;;;;5.67;4.60;;;12.20;93.00;;;;;;4991300;28;20450;-76
2022/03/19 14:10:43;;;;;;;4.70;3.50;;;12.30;90.70;;;;;;4993709;28;20856;-75
2022/03/19 14:13:10;;;;;;;5.80;3.90;;;12.20;90.50;;;;;;4992481;28;20449;-74
2022/03/19 14:15:44;;;;;;;6.10;4.53;;;12.30;92.50;;;;;;4993349;28;20426;-75
2022/03/19 14:18:22;;;;;;;6.20;4.30;;;12.40;92.20;;;;;;4993806;28;20852;-75
2022/03/19 14:20:48;;;;;;;6.10;3.90;;;12.10;92.00;;;;;;4993303;28;20853;-75
2022/03/19 14:23:16;;;;;;;6.10;4.20;;;11.90;91.20;;;;;;4991439;28;20427;-75